Terminal Aerodrome Forecast
Issued by NWS

Home | Current Version | Previous Version | Text Only | Print | Product List | Glossary Off
Versions: 1 2 3 4 5 6 7 8 9 10 11 12 13

000
FTUS43 KBIS 181700
TAFMOT
TAF
KMOT 181735Z 1818/1918 20011KT P6SM BKN100
     FM182000 27018G24KT 6SM -SHSN BLSN BKN025
     FM190200 29020G30KT P6SM OVC020
     FM190800 29018KT P6SM OVC015=

USA.gov is the U.S. government's official web portal to all federal, state and local government web resources and services.